createdAt,value
2023-04-18T00:04:50.723Z,5.45
2023-04-18T00:09:53.690Z,5.53
2023-04-18T00:14:58.878Z,6.22
2023-04-18T00:20:04.928Z,5.63
2023-04-18T00:25:08.743Z,6.45
2023-04-18T00:30:12.005Z,5.25
2023-04-18T00:35:15.025Z,6.50
2023-04-18T00:40:17.950Z,5.78
2023-04-18T00:45:21.158Z,5.13
2023-04-18T00:50:24.787Z,5.65
2023-04-18T00:55:29.307Z,5.78
2023-04-18T01:00:32.648Z,7.18
2023-04-18T01:10:40.859Z,7.10
2023-04-18T01:15:49.142Z,7.93
2023-04-18T01:20:54.815Z,7.28
2023-04-18T01:25:58.069Z,8.65
2023-04-18T01:31:01.892Z,8.15
2023-04-18T01:36:05.170Z,12.85
2023-04-18T01:41:08.156Z,12.02
2023-04-18T01:46:11.069Z,8.00
2023-04-18T01:51:14.261Z,7.13
2023-04-18T01:56:17.298Z,10.43
2023-04-18T02:01:20.846Z,9.30
2023-04-18T02:06:23.906Z,11.13
2023-04-18T02:11:26.911Z,8.77
2023-04-18T02:16:29.937Z,9.40
2023-04-18T02:21:33.102Z,11.10
2023-04-18T02:26:36.279Z,12.95
2023-04-18T02:31:40.809Z,11.82
2023-04-18T02:36:43.857Z,9.50
2023-04-18T02:42:05.021Z,8.60
2023-04-18T02:47:07.855Z,8.90
2023-04-18T02:52:14.744Z,12.00
2023-04-18T02:57:17.671Z,10.18
2023-04-18T03:02:39.655Z,8.90
2023-04-18T03:08:11.489Z,9.18
2023-04-18T03:13:15.455Z,11.00
2023-04-18T03:18:19.292Z,12.52
2023-04-18T03:23:22.391Z,11.40
2023-04-18T03:28:25.322Z,11.43
2023-04-18T03:33:29.815Z,11.60
2023-04-18T03:38:42.743Z,12.00
2023-04-18T03:43:45.760Z,8.50
2023-04-18T03:48:48.731Z,11.82
2023-04-18T03:53:51.794Z,11.70
2023-04-18T03:58:54.856Z,9.35
2023-04-18T04:04:17.086Z,18.08
2023-04-18T04:09:20.439Z,8.00
2023-04-18T04:14:24.764Z,7.45
2023-04-18T04:19:29.503Z,6.97
2023-04-18T04:24:53.276Z,7.55
2023-04-18T04:30:04.360Z,9.48
2023-04-18T04:40:12.033Z,7.70
2023-04-18T04:45:33.366Z,5.95
2023-04-18T04:50:37.909Z,14.07
2023-04-18T04:55:41.612Z,6.72
2023-04-18T05:05:48.153Z,5.38
2023-04-18T05:10:51.329Z,5.80
2023-04-18T05:15:54.225Z,8.55
2023-04-18T05:20:57.396Z,5.60
2023-04-18T05:26:00.865Z,7.45
2023-04-18T05:31:23.165Z,7.72
2023-04-18T05:36:26.961Z,5.22
2023-04-18T05:41:29.854Z,4.93
2023-04-18T05:46:33.193Z,6.63
2023-04-18T05:51:54.817Z,5.03
2023-04-18T05:56:57.762Z,7.20
2023-04-18T06:02:01.028Z,7.70
2023-04-18T06:07:25.299Z,5.97
2023-04-18T06:12:28.272Z,6.45
2023-04-18T06:17:31.221Z,4.85
2023-04-18T06:22:36.905Z,7.07
2023-04-18T06:27:40.039Z,9.32
2023-04-18T06:32:43.792Z,5.50
2023-04-18T06:37:46.952Z,6.00
2023-04-18T06:42:49.928Z,6.13
2023-04-18T06:47:53.755Z,8.98
2023-04-18T06:52:56.626Z,6.40
2023-04-18T06:58:00.725Z,6.30
2023-04-18T07:03:11.427Z,5.75
2023-04-18T07:08:15.579Z,6.70
2023-04-18T07:13:18.643Z,6.22
2023-04-18T07:18:34.167Z,5.55
2023-04-18T07:23:58.833Z,7.25
2023-04-18T07:29:01.804Z,8.95
2023-04-18T07:34:05.211Z,10.43
2023-04-18T07:39:08.422Z,6.07
2023-04-18T07:44:11.628Z,7.65
2023-04-18T07:49:14.875Z,5.70
2023-04-18T07:54:18.033Z,4.75
2023-04-18T07:59:21.301Z,8.35
2023-04-18T08:04:26.890Z,5.90
2023-04-18T08:09:49.920Z,6.57
2023-04-18T08:14:52.914Z,5.88
2023-04-18T08:19:56.022Z,6.35
2023-04-18T08:25:04.901Z,5.82
2023-04-18T08:30:09.994Z,5.22
2023-04-18T08:35:13.242Z,9.43
2023-04-18T08:40:17.094Z,6.60
2023-04-18T08:45:21.079Z,5.70
2023-04-18T08:50:24.028Z,5.88
2023-04-18T09:00:30.688Z,5.15
2023-04-18T09:05:33.925Z,5.20
2023-04-18T09:10:38.569Z,5.63
2023-04-18T09:15:43.365Z,4.45
2023-04-18T09:20:47.836Z,5.65
2023-04-18T09:25:52.482Z,4.97
2023-04-18T09:31:15.451Z,6.95
2023-04-18T09:36:37.632Z,4.57
2023-04-18T09:41:40.643Z,8.70
2023-04-18T09:46:47.135Z,5.97
2023-04-18T09:51:56.809Z,5.38
2023-04-18T09:57:03.129Z,6.18
2023-04-18T10:02:10.298Z,4.97
2023-04-18T10:07:32.610Z,4.82
2023-04-18T10:12:37.695Z,5.05
2023-04-18T10:18:04.555Z,6.05
2023-04-18T10:23:35.160Z,4.63
2023-04-18T10:28:55.195Z,5.47
2023-04-18T10:34:05.240Z,7.22
2023-04-18T10:39:23.327Z,10.00
2023-04-18T10:44:27.225Z,6.13
2023-04-18T10:49:34.074Z,9.65
2023-04-18T10:54:58.424Z,5.72
2023-04-18T11:00:02.868Z,7.80
2023-04-18T11:05:08.565Z,5.78
2023-04-18T11:10:12.383Z,6.18
2023-04-18T11:15:21.604Z,4.55
2023-04-18T11:20:25.223Z,4.38
2023-04-18T11:25:30.815Z,9.18
2023-04-18T11:30:43.158Z,4.38
2023-04-18T11:35:46.891Z,4.97
2023-04-18T11:40:51.242Z,4.90
2023-04-18T11:46:13.707Z,4.63
2023-04-18T11:51:34.836Z,8.48
2023-04-18T11:56:47.397Z,6.50
2023-04-18T12:02:14.923Z,7.85
2023-04-18T12:07:45.968Z,4.72
2023-04-18T12:12:50.729Z,4.40
2023-04-18T12:18:01.276Z,3.80
2023-04-18T12:23:04.775Z,5.88
2023-04-18T12:28:15.977Z,6.45
2023-04-18T12:33:19.809Z,5.60
2023-04-18T12:38:23.775Z,6.78
2023-04-18T12:43:26.944Z,6.55
2023-04-18T12:48:29.964Z,4.38
2023-04-18T12:53:33.004Z,6.13
2023-04-18T12:58:54.562Z,8.98
2023-04-18T13:04:08.803Z,5.30
2023-04-18T13:09:34.378Z,5.65
2023-04-18T13:14:37.304Z,5.18
2023-04-18T13:19:40.518Z,5.60
2023-04-18T13:24:43.530Z,6.38
2023-04-18T13:29:46.736Z,5.25
2023-04-18T13:34:49.791Z,4.50
2023-04-18T13:39:52.725Z,5.63
2023-04-18T13:44:55.590Z,7.07
2023-04-18T13:49:58.631Z,8.10
2023-04-18T13:55:01.556Z,6.20
2023-04-18T14:00:09.414Z,5.60
2023-04-18T14:05:16.652Z,4.85
2023-04-18T14:10:21.842Z,7.63
2023-04-18T14:15:25.006Z,6.32
2023-04-18T14:20:34.435Z,14.63
2023-04-18T14:25:37.331Z,7.28
2023-04-18T14:30:40.687Z,6.05
2023-04-18T14:35:44.196Z,6.78
2023-04-18T14:40:47.348Z,5.32
2023-04-18T14:45:50.216Z,4.82
2023-04-18T14:50:57.454Z,5.35
2023-04-18T14:56:00.302Z,5.60
2023-04-18T15:01:04.318Z,4.50
2023-04-18T15:06:07.471Z,8.88
2023-04-18T15:11:10.931Z,6.57
2023-04-18T15:16:14.006Z,7.75
2023-04-18T15:21:17.197Z,12.02
2023-04-18T15:26:20.210Z,8.00
2023-04-18T15:31:23.668Z,6.88
2023-04-18T15:36:27.872Z,11.77
2023-04-18T15:41:31.269Z,11.85
2023-04-18T15:46:34.952Z,9.90
2023-04-18T15:51:38.185Z,9.32
2023-04-18T15:56:59.696Z,10.90
2023-04-18T16:02:02.783Z,15.40
2023-04-18T16:07:06.621Z,13.60
2023-04-18T16:12:09.537Z,11.30
2023-04-18T16:17:12.768Z,13.82
2023-04-18T16:22:15.765Z,15.10
2023-04-18T16:32:21.569Z,12.85
2023-04-18T16:37:24.609Z,12.95
2023-04-18T16:42:27.569Z,13.20
2023-04-18T16:47:30.818Z,11.27
2023-04-18T16:52:52.077Z,12.45
2023-04-18T17:02:58.418Z,11.98
2023-04-18T17:08:01.452Z,8.38
2023-04-18T17:13:04.637Z,8.07
2023-04-18T17:23:30.956Z,10.15
2023-04-18T17:28:36.692Z,8.07
2023-04-18T17:33:39.793Z,7.00
2023-04-18T17:38:49.084Z,7.93
2023-04-18T17:43:52.155Z,5.57
2023-04-18T17:48:55.095Z,8.77
2023-04-18T17:53:58.081Z,7.28
2023-04-18T17:59:01.398Z,7.65
2023-04-18T18:04:04.522Z,9.25
2023-04-18T18:09:25.918Z,7.65
2023-04-18T18:14:28.871Z,5.53
2023-04-18T18:19:32.065Z,7.60
2023-04-18T18:24:53.758Z,8.98
2023-04-18T18:30:15.083Z,8.02
2023-04-18T18:35:18.100Z,7.60
2023-04-18T18:40:21.486Z,7.78
2023-04-18T18:50:27.350Z,7.03
2023-04-18T18:55:30.536Z,6.47
2023-04-18T19:00:33.533Z,6.95
2023-04-18T19:05:36.921Z,6.53
2023-04-18T19:15:42.833Z,7.90
2023-04-18T19:20:46.636Z,5.20
2023-04-18T19:25:49.565Z,7.40
2023-04-18T19:30:53.319Z,4.35
2023-04-18T19:35:56.590Z,4.93
2023-04-18T19:40:59.562Z,6.32
2023-04-18T19:46:02.744Z,6.15
2023-04-18T19:51:05.757Z,7.45
2023-04-18T19:56:11.321Z,4.88
2023-04-18T20:01:19.026Z,5.70
2023-04-18T20:06:22.285Z,5.60
2023-04-18T20:11:25.181Z,7.78
2023-04-18T20:16:28.149Z,6.07
2023-04-18T20:21:31.432Z,5.13
2023-04-18T20:26:34.301Z,4.10
2023-04-18T20:31:42.116Z,5.50
2023-04-18T20:36:46.906Z,6.68
2023-04-18T20:41:51.038Z,6.25
2023-04-18T20:46:53.888Z,4.75
2023-04-18T20:51:56.860Z,6.47
2023-04-18T20:57:00.347Z,5.60
2023-04-18T21:02:03.823Z,4.72
2023-04-18T21:12:09.373Z,8.10
2023-04-18T21:17:17.168Z,5.45
2023-04-18T21:22:20.135Z,7.13
2023-04-18T21:27:23.002Z,4.60
2023-04-18T21:32:26.002Z,5.60
2023-04-18T21:37:47.554Z,4.47
2023-04-18T21:42:53.260Z,5.32
2023-04-18T21:47:56.275Z,6.10
2023-04-18T21:52:59.124Z,5.80
2023-04-18T21:58:02.319Z,4.47
2023-04-18T22:03:05.409Z,4.90
2023-04-18T22:08:08.477Z,3.35
2023-04-18T22:13:11.632Z,4.80
2023-04-18T22:18:14.756Z,4.13
2023-04-18T22:23:17.620Z,4.93
2023-04-18T22:28:39.277Z,7.80
2023-04-18T22:33:42.197Z,5.43
2023-04-18T22:38:45.116Z,4.95
2023-04-18T22:43:48.035Z,5.75
2023-04-18T22:48:50.909Z,7.57
2023-04-18T22:53:53.793Z,8.50
2023-04-18T22:58:57.083Z,8.25
2023-04-18T23:04:00.008Z,9.60
2023-04-18T23:09:04.408Z,8.68
2023-04-18T23:14:08.858Z,12.48
2023-04-18T23:19:11.806Z,8.27
2023-04-18T23:24:14.973Z,8.52
2023-04-18T23:29:18.109Z,9.20
2023-04-18T23:34:20.933Z,13.93
2023-04-18T23:39:26.149Z,10.48
2023-04-18T23:44:29.119Z,11.07
2023-04-18T23:49:32.053Z,11.05
2023-04-18T23:54:35.085Z,9.77
2023-04-18T23:59:38.247Z,13.40
